首页
METAR-TAF:

METAR-TAF

机场 :

艾藻尔, 印度

纬度: 23-50-18N, 经度: 92-37-13E, 海拔: 405米

当前天气观测

该预报发布于35分钟前的01:00 UTC
静风
温度 27°C
湿度 84%
气压 1007 hPa
能見度: 4000
散云层高于1800英尺
多云层高于10000英尺
轻雾,

METAR: VELP 170100Z 00000KT 4000 BR SCT018 BKN100 27/24 Q1007 NOSIG

时间: 07:05 (01:35 UTC)

预报

该预报发布于2小时和35分钟前的23:00 UTC
预报有效从17日的 00点(UTC)到 17日的 09点(UTC)
风速5节,风向
能見度: 2500
散云层高于1800英尺
散云层高于10000英尺
轻雾
成为
从 17日的 01点(UTC)到 17日的 03点(UTC)
能見度: 4000
短暂存在
从 17日的 04点(UTC)到 17日的 06点(UTC)
风速10节,风向西南,有时为25节阵风
能見度: 2000
少量云层高于1000英尺
散云层高于1500英尺
少量云层高于2500英尺, 积雨云.
多云层高于9000英尺
雷暴, 小雨,

TAF: VELP 162300Z 1700/1709 18005KT 2500 BR SCT018 SCT100 BECMG 1701/1703 4000 HZ TEMPO 1704/1706 22010G25KT 2000 -TSRA FEW010 SCT015 FEW025CB BKN090

超过4000个机场的气象观测和天气预报(METAR&TAF报告)。

可查询的气象台以黄色和红色小点在地图上表示。

将鼠标移到小点上方,可查看气象台名称。

然后点击查看天气观测和预报。

如需切换地图:点击带黑十字的绿色按钮放大地图;点击带横线的绿色按钮缩小地图;或者点击绿色箭头查看邻近地区的地图。


METAR-TAF: